Time;durP1;ratioP1;P1;durP2;ratioP2;P2;SDS_P1;SDS_P2;PMS_P1;PMS_P2;Temp;Humidity;BMP_temperature;BMP_pressure;BME280_temperature;BME280_humidity;BME280_pressure;Samples;Min_cycle;Max_cycle;Signal;HPM_P1;HPM_P2
2021/08/02 00:02:56;;;;;;;1.30;0.40;;;20.80;68.20;;;;;;5095357;28;20363;-71
2021/08/02 00:05:22;;;;;;;1.48;0.30;;;20.80;68.20;;;;;;5064578;28;20059;-72
2021/08/02 00:07:57;;;;;;;1.08;0.20;;;20.80;68.30;;;;;;5095670;28;20048;-72
2021/08/02 00:10:29;;;;;;;1.48;0.38;;;20.80;68.30;;;;;;5095276;28;20102;-72
2021/08/02 00:13:01;;;;;;;1.23;0.43;;;20.80;68.30;;;;;;5095101;28;20067;-72
2021/08/02 00:15:28;;;;;;;2.30;0.50;;;20.80;68.30;;;;;;5095615;28;20044;-72
2021/08/02 00:17:54;;;;;;;0.60;0.30;;;20.80;68.30;;;;;;5095661;28;20048;-72
2021/08/02 00:20:26;;;;;;;2.30;0.52;;;20.80;68.30;;;;;;5095671;28;20105;-72
2021/08/02 00:22:53;;;;;;;1.73;0.55;;;20.80;68.30;;;;;;5095692;28;20036;-72
2021/08/02 00:25:20;;;;;;;1.98;0.70;;;20.80;68.20;;;;;;5095604;28;20048;-72
2021/08/02 00:27:47;;;;;;;0.93;0.47;;;20.80;68.20;;;;;;5095181;28;20474;-72
2021/08/02 00:30:13;;;;;;;3.63;0.40;;;20.80;68.30;;;;;;5095432;28;20043;-72
2021/08/02 00:32:39;;;;;;;1.25;0.40;;;20.80;68.30;;;;;;5095128;28;20356;-72
2021/08/02 00:35:05;;;;;;;0.98;0.35;;;20.80;68.20;;;;;;5095230;28;20355;-72
2021/08/02 00:37:40;;;;;;;1.13;0.40;;;20.80;68.10;;;;;;5096410;28;20075;-72
2021/08/02 00:40:37;;;;;;;0.90;0.25;;;20.80;68.20;;;;;;5098724;28;20070;-72
2021/08/02 00:43:08;;;;;;;2.20;0.50;;;20.80;68.20;;;;;;5098969;28;20040;-72
2021/08/02 00:45:35;;;;;;;1.00;0.35;;;20.80;68.20;;;;;;5098915;28;20126;-72
2021/08/02 00:48:05;;;;;;;1.38;0.30;;;20.80;68.20;;;;;;5098904;28;20036;-71
2021/08/02 00:50:40;;;;;;;1.20;0.30;;;20.80;68.20;;;;;;5098753;28;20051;-72
2021/08/02 00:53:20;;;;;;;2.08;0.40;;;20.80;68.20;;;;;;5098675;28;20071;-72
2021/08/02 00:55:50;;;;;;;0.98;0.40;;;20.80;68.20;;;;;;5099077;28;20051;-71
2021/08/02 00:58:17;;;;;;;2.38;0.60;;;20.70;68.10;;;;;;5098674;28;20044;-72
2021/08/02 01:00:44;;;;;;;1.15;0.30;;;20.70;68.20;;;;;;5098629;28;20056;-71
2021/08/02 01:03:12;;;;;;;1.75;0.35;;;20.80;68.20;;;;;;5099046;28;20062;-72
2021/08/02 01:05:42;;;;;;;0.88;0.30;;;20.70;68.20;;;;;;5098451;28;20040;-72
2021/08/02 01:08:14;;;;;;;2.15;0.40;;;20.70;68.20;;;;;;5098876;28;20153;-72
2021/08/02 01:11:01;;;;;;;1.98;0.30;;;20.80;68.20;;;;;;5098268;28;20549;-72
2021/08/02 01:13:31;;;;;;;1.88;0.30;;;20.80;68.20;;;;;;5098334;28;20067;-72
2021/08/02 01:16:02;;;;;;;1.85;0.52;;;20.80;68.20;;;;;;5098336;28;20138;-72
2021/08/02 01:18:30;;;;;;;1.17;0.30;;;20.70;68.20;;;;;;5098361;28;20055;-72
2021/08/02 01:21:01;;;;;;;1.73;0.50;;;20.70;68.20;;;;;;5098548;28;20047;-72
2021/08/02 01:23:28;;;;;;;2.15;0.65;;;20.70;68.10;;;;;;5098334;28;20434;-72
2021/08/02 01:25:55;;;;;;;1.25;0.38;;;20.70;68.10;;;;;;5098147;28;20115;-72
2021/08/02 01:28:21;;;;;;;2.58;0.43;;;20.70;68.10;;;;;;5098106;28;20052;-72
2021/08/02 01:30:52;;;;;;;1.65;0.47;;;20.70;68.10;;;;;;5098221;28;20125;-71
2021/08/02 01:33:28;;;;;;;1.60;0.68;;;20.70;68.00;;;;;;5098279;28;20122;-72
2021/08/02 01:35:56;;;;;;;1.23;0.45;;;20.70;68.10;;;;;;5098028;28;20054;-72
2021/08/02 01:38:25;;;;;;;1.27;0.50;;;20.70;68.10;;;;;;5098289;28;20047;-71
2021/08/02 01:40:51;;;;;;;1.95;0.63;;;20.70;68.00;;;;;;5098066;28;20055;-72
2021/08/02 01:43:17;;;;;;;2.35;0.73;;;20.70;68.00;;;;;;5098379;28;20100;-72
2021/08/02 01:46:10;;;;;;;1.80;0.60;;;20.70;68.00;;;;;;5098159;28;20039;-71
2021/08/02 01:48:43;;;;;;;1.05;0.43;;;20.70;67.90;;;;;;5097261;28;20044;-71
2021/08/02 01:51:37;;;;;;;1.85;0.40;;;20.70;68.00;;;;;;5097814;28;20048;-72
2021/08/02 01:54:07;;;;;;;2.10;0.57;;;20.70;67.90;;;;;;5084296;28;20070;-72
2021/08/02 01:56:39;;;;;;;1.48;0.60;;;20.70;67.90;;;;;;5097410;28;20051;-71
2021/08/02 01:59:16;;;;;;;2.45;0.63;;;20.70;68.00;;;;;;5097305;28;20470;-72
2021/08/02 02:01:55;;;;;;;3.50;0.85;;;20.70;68.00;;;;;;5097484;28;20336;-72
2021/08/02 02:04:24;;;;;;;1.65;0.52;;;20.60;67.90;;;;;;5097497;28;20036;-71
2021/08/02 02:06:55;;;;;;;1.67;0.43;;;20.60;67.90;;;;;;5097973;28;20078;-72
2021/08/02 02:09:21;;;;;;;1.85;0.28;;;20.70;68.00;;;;;;5097353;28;20040;-72
2021/08/02 02:11:49;;;;;;;2.17;0.47;;;20.70;67.90;;;;;;5097233;28;20044;-72
2021/08/02 02:14:15;;;;;;;1.30;0.52;;;20.70;67.90;;;;;;5097507;28;20048;-72
2021/08/02 02:16:48;;;;;;;1.17;0.47;;;20.60;67.90;;;;;;5097161;28;20040;-72
2021/08/02 02:19:15;;;;;;;2.00;0.45;;;20.60;67.90;;;;;;5097586;28;20040;-72
2021/08/02 02:21:42;;;;;;;1.67;0.45;;;20.60;67.90;;;;;;5097266;28;20059;-72
2021/08/02 02:24:10;;;;;;;2.22;0.35;;;20.60;67.90;;;;;;5097236;28;20477;-72
2021/08/02 02:26:38;;;;;;;2.75;0.75;;;20.60;68.00;;;;;;5097481;28;20051;-72
2021/08/02 02:29:10;;;;;;;1.15;0.30;;;20.60;67.90;;;;;;5096886;28;20059;-72
2021/08/02 02:31:36;;;;;;;3.33;0.73;;;20.60;68.00;;;;;;5096944;28;20047;-72
2021/08/02 02:34:05;;;;;;;2.10;0.47;;;20.60;68.00;;;;;;5097036;28;20443;-72
2021/08/02 02:36:34;;;;;;;1.55;0.65;;;20.60;68.00;;;;;;5096860;28;20457;-72
2021/08/02 02:39:01;;;;;;;2.15;0.40;;;20.60;68.00;;;;;;5096476;28;20044;-72
2021/08/02 02:41:28;;;;;;;2.28;0.45;;;20.60;68.00;;;;;;5096988;28;20040;-72
2021/08/02 02:43:55;;;;;;;2.60;0.55;;;20.60;68.00;;;;;;5097191;28;20043;-72
2021/08/02 02:46:22;;;;;;;1.95;0.40;;;20.60;68.00;;;;;;5096976;28;20045;-72
2021/08/02 02:48:50;;;;;;;1.15;0.40;;;20.60;67.90;;;;;;5096872;28;20051;-72
2021/08/02 02:51:17;;;;;;;1.23;0.50;;;20.60;67.90;;;;;;5097140;28;20090;-72
2021/08/02 02:53:44;;;;;;;1.60;0.55;;;20.60;67.90;;;;;;5096165;28;20074;-72
2021/08/02 02:56:13;;;;;;;1.17;0.35;;;20.60;67.90;;;;;;5096908;28;20056;-72
2021/08/02 02:58:40;;;;;;;1.15;0.47;;;20.60;67.80;;;;;;5096225;28;20044;-72
2021/08/02 03:01:07;;;;;;;1.17;0.40;;;20.60;67.80;;;;;;5096280;28;20044;-72
2021/08/02 03:03:36;;;;;;;1.45;0.43;;;20.60;67.80;;;;;;5096855;28;20039;-72
2021/08/02 03:06:04;;;;;;;2.38;0.77;;;20.60;67.80;;;;;;5096040;28;20114;-72
2021/08/02 03:08:34;;;;;;;1.45;0.55;;;20.60;67.80;;;;;;5096421;28;20039;-72
2021/08/02 03:11:02;;;;;;;2.65;0.70;;;20.60;67.80;;;;;;5096409;28;20047;-72
2021/08/02 03:13:27;;;;;;;3.30;0.60;;;20.60;67.80;;;;;;5096455;28;20119;-72
2021/08/02 03:15:53;;;;;;;2.08;0.40;;;20.60;67.80;;;;;;5096332;28;20115;-72
2021/08/02 03:18:19;;;;;;;1.67;0.50;;;20.60;67.80;;;;;;5095891;28;20093;-71
2021/08/02 03:20:45;;;;;;;1.15;0.45;;;20.50;68.30;;;;;;5095984;28;20043;-72
2021/08/02 03:23:14;;;;;;;1.45;0.50;;;20.50;67.70;;;;;;5095981;28;20043;-72
2021/08/02 03:25:48;;;;;;;1.80;0.43;;;20.60;67.70;;;;;;5096571;28;20044;-72
2021/08/02 03:28:28;;;;;;;1.23;0.40;;;20.50;67.70;;;;;;5096182;28;20036;-71
2021/08/02 03:30:58;;;;;;;2.20;0.70;;;20.60;67.70;;;;;;5095676;28;20052;-72
2021/08/02 03:33:29;;;;;;;3.15;0.50;;;20.50;67.70;;;;;;5095618;28;20074;-72
2021/08/02 03:35:58;;;;;;;1.52;0.40;;;20.50;67.70;;;;;;5096139;28;20062;-72
2021/08/02 03:38:27;;;;;;;0.90;0.50;;;20.50;67.70;;;;;;5095874;28;20066;-71
2021/08/02 03:40:54;;;;;;;1.58;0.50;;;20.50;67.70;;;;;;5095759;28;20040;-71
2021/08/02 03:43:20;;;;;;;1.90;0.65;;;20.50;67.70;;;;;;5095384;28;20340;-72
2021/08/02 03:45:46;;;;;;;1.73;0.60;;;20.50;67.70;;;;;;5095446;28;20047;-72
2021/08/02 03:48:12;;;;;;;2.80;0.50;;;20.50;67.70;;;;;;5095563;28;20044;-72
2021/08/02 03:50:38;;;;;;;2.00;0.52;;;20.50;67.70;;;;;;5095662;28;20510;-72
2021/08/02 03:53:04;;;;;;;1.95;0.63;;;20.50;67.60;;;;;;5095421;28;20054;-72
2021/08/02 03:55:35;;;;;;;4.43;0.52;;;20.50;67.60;;;;;;5095146;28;20466;-72
2021/08/02 03:58:02;;;;;;;1.35;0.30;;;20.50;67.60;;;;;;5095401;28;20048;-72
2021/08/02 04:00:27;;;;;;;1.92;0.40;;;20.50;67.60;;;;;;5095189;28;20130;-72
2021/08/02 04:02:53;;;;;;;1.38;0.55;;;20.50;67.60;;;;;;5095529;28;20554;-72
2021/08/02 04:05:19;;;;;;;1.75;0.50;;;20.50;67.50;;;;;;5095479;28;20055;-72
2021/08/02 04:07:47;;;;;;;2.47;0.45;;;20.40;67.50;;;;;;5095433;28;20047;-72
2021/08/02 04:10:13;;;;;;;1.30;0.50;;;20.50;67.50;;;;;;5095371;28;20048;-72
2021/08/02 04:12:40;;;;;;;2.20;0.70;;;20.50;67.50;;;;;;5094625;28;20054;-72
2021/08/02 04:15:08;;;;;;;4.38;0.85;;;20.50;67.50;;;;;;5095046;28;20348;-72
2021/08/02 04:17:34;;;;;;;1.88;0.50;;;20.50;67.50;;;;;;5095708;28;20051;-71
2021/08/02 04:19:59;;;;;;;2.05;0.50;;;20.50;67.40;;;;;;5095201;28;20044;-72
2021/08/02 04:22:28;;;;;;;1.42;0.45;;;20.50;67.40;;;;;;5095299;28;20371;-72
2021/08/02 04:24:54;;;;;;;1.30;0.50;;;20.40;67.40;;;;;;5095615;28;20032;-71
2021/08/02 04:27:20;;;;;;;1.75;0.52;;;20.40;67.40;;;;;;5094996;28;20059;-71
2021/08/02 04:29:47;;;;;;;2.85;0.50;;;20.40;67.40;;;;;;5094892;28;20332;-72
2021/08/02 04:32:13;;;;;;;1.13;0.32;;;20.40;67.40;;;;;;5094905;28;20036;-72
2021/08/02 04:34:39;;;;;;;1.25;0.30;;;20.50;67.40;;;;;;5094973;28;20097;-72
2021/08/02 04:37:05;;;;;;;1.65;0.47;;;20.40;67.40;;;;;;5094807;28;20040;-72
2021/08/02 04:39:31;;;;;;;1.45;0.30;;;20.40;67.40;;;;;;5094947;28;20358;-72
2021/08/02 04:41:57;;;;;;;1.70;0.40;;;20.40;67.40;;;;;;5095073;28;20040;-72
2021/08/02 04:44:23;;;;;;;2.25;0.43;;;20.40;67.40;;;;;;5094634;28;20102;-72
2021/08/02 04:46:49;;;;;;;1.35;0.30;;;20.40;67.40;;;;;;5094907;28;20040;-72
2021/08/02 04:49:15;;;;;;;1.77;0.70;;;20.50;67.40;;;;;;5095184;28;20050;-72
2021/08/02 04:51:41;;;;;;;1.73;0.50;;;20.40;67.40;;;;;;5095403;28;20046;-71
2021/08/02 04:54:07;;;;;;;1.02;0.50;;;20.40;67.40;;;;;;5094733;28;20355;-72
2021/08/02 04:56:34;;;;;;;1.98;0.32;;;20.40;67.40;;;;;;5094671;28;20040;-72
2021/08/02 04:58:59;;;;;;;1.50;0.50;;;20.40;67.50;;;;;;5094459;28;20052;-72
2021/08/02 05:01:25;;;;;;;1.60;0.52;;;20.40;67.40;;;;;;5095173;28;20108;-72
2021/08/02 05:03:51;;;;;;;1.55;0.40;;;20.40;67.50;;;;;;5094807;28;20451;-72
2021/08/02 05:06:17;;;;;;;1.85;0.50;;;20.40;67.40;;;;;;5094971;28;20332;-71
2021/08/02 05:08:42;;;;;;;1.30;0.40;;;20.40;67.40;;;;;;5094573;28;20055;-71
2021/08/02 05:11:08;;;;;;;1.45;0.30;;;20.40;67.40;;;;;;5094724;28;20107;-72
2021/08/02 05:13:36;;;;;;;1.13;0.38;;;20.40;67.40;;;;;;5094505;28;20040;-72
2021/08/02 05:16:05;;;;;;;2.03;0.55;;;20.40;67.40;;;;;;5094630;28;20036;-71
2021/08/02 05:18:32;;;;;;;0.90;0.35;;;20.40;67.40;;;;;;5094921;28;20052;-72
2021/08/02 05:20:57;;;;;;;2.67;0.50;;;20.40;67.40;;;;;;5094332;28;20054;-71
2021/08/02 05:23:23;;;;;;;2.05;0.60;;;20.40;67.40;;;;;;5095366;28;20032;-72
2021/08/02 05:25:49;;;;;;;2.30;0.52;;;20.40;67.40;;;;;;5098162;28;20032;-72
2021/08/02 05:28:16;;;;;;;2.88;0.60;;;20.40;67.40;;;;;;5098390;28;20119;-71
2021/08/02 05:30:41;;;;;;;1.48;0.35;;;20.40;67.40;;;;;;5098576;28;20439;-72
2021/08/02 05:33:08;;;;;;;1.35;0.40;;;20.40;67.40;;;;;;5098018;28;20119;-71
2021/08/02 05:35:33;;;;;;;1.55;0.40;;;20.40;67.40;;;;;;5098538;28;20123;-72
2021/08/02 05:37:59;;;;;;;1.65;0.40;;;20.40;67.50;;;;;;5097732;28;20036;-72
2021/08/02 05:40:25;;;;;;;1.50;0.50;;;20.40;67.50;;;;;;5098419;28;20109;-72
2021/08/02 05:42:51;;;;;;;0.75;0.25;;;20.40;67.50;;;;;;5097780;28;20040;-72
2021/08/02 05:45:17;;;;;;;1.52;0.45;;;20.40;67.50;;;;;;5098154;28;20044;-72
2021/08/02 05:47:43;;;;;;;1.50;0.50;;;20.40;67.60;;;;;;5097877;28;20040;-72
2021/08/02 05:50:10;;;;;;;2.20;0.50;;;20.40;67.60;;;;;;5098066;28;20051;-72
2021/08/02 05:52:36;;;;;;;2.13;0.50;;;20.40;67.60;;;;;;5097733;28;20051;-72
2021/08/02 05:55:02;;;;;;;1.83;0.30;;;20.40;67.60;;;;;;5097616;28;20044;-72
2021/08/02 05:57:28;;;;;;;2.22;0.40;;;20.40;67.60;;;;;;5097577;28;20347;-71
2021/08/02 05:59:53;;;;;;;1.52;0.52;;;20.40;67.70;;;;;;5097899;28;20054;-72
2021/08/02 06:02:19;;;;;;;2.08;0.50;;;20.40;67.70;;;;;;5097677;28;20044;-72
2021/08/02 06:04:45;;;;;;;1.50;0.35;;;20.40;67.70;;;;;;5097554;28;20058;-72
2021/08/02 06:07:11;;;;;;;0.93;0.40;;;20.40;67.70;;;;;;5097980;28;20044;-72
2021/08/02 06:09:40;;;;;;;1.63;0.40;;;20.40;67.70;;;;;;5096975;28;20047;-72
2021/08/02 06:12:24;;;;;;;2.03;0.35;;;20.40;67.70;;;;;;5098097;28;20044;-71
2021/08/02 06:14:54;;;;;;;1.63;0.50;;;20.40;67.70;;;;;;5097353;28;20047;-72
2021/08/02 06:17:20;;;;;;;2.65;0.45;;;20.40;67.70;;;;;;5097104;28;20040;-72
2021/08/02 06:19:46;;;;;;;1.48;0.60;;;20.40;67.80;;;;;;5097207;28;20573;-72
2021/08/02 06:22:12;;;;;;;1.67;0.60;;;20.40;67.70;;;;;;5096967;28;20062;-72
2021/08/02 06:24:38;;;;;;;1.85;0.50;;;20.40;67.70;;;;;;5097683;28;20040;-71
2021/08/02 06:27:05;;;;;;;2.10;0.40;;;20.40;67.70;;;;;;5097645;28;20040;-72
2021/08/02 06:29:34;;;;;;;1.40;0.40;;;20.40;67.70;;;;;;5096841;28;20451;-72
2021/08/02 06:32:00;;;;;;;3.75;0.75;;;20.40;67.80;;;;;;5097360;28;20097;-72
2021/08/02 06:34:37;;;;;;;1.15;0.30;;;20.40;67.80;;;;;;5096837;28;20040;-72
2021/08/02 06:37:04;;;;;;;1.17;0.35;;;20.40;67.80;;;;;;5096385;28;20105;-72
2021/08/02 06:39:30;;;;;;;1.65;0.43;;;20.40;67.80;;;;;;5097283;28;20097;-71
2021/08/02 06:41:56;;;;;;;1.23;0.30;;;20.40;68.40;;;;;;5096853;28;20052;-72
2021/08/02 06:44:22;;;;;;;0.82;0.35;;;20.40;67.80;;;;;;5097232;28;20390;-71
2021/08/02 06:46:47;;;;;;;1.52;0.40;;;20.40;67.80;;;;;;5096487;28;20123;-72
2021/08/02 06:49:13;;;;;;;1.15;0.40;;;20.40;67.90;;;;;;5097172;28;20418;-71
2021/08/02 06:51:39;;;;;;;2.25;0.47;;;20.40;67.90;;;;;;5096978;28;20044;-71
2021/08/02 06:54:05;;;;;;;2.15;0.50;;;20.40;67.90;;;;;;5096623;28;20051;-72
2021/08/02 06:56:31;;;;;;;1.17;0.35;;;20.40;67.90;;;;;;5096403;28;20071;-72
2021/08/02 06:58:56;;;;;;;2.53;0.50;;;20.40;67.90;;;;;;5096416;28;20157;-72
2021/08/02 07:01:22;;;;;;;1.38;0.43;;;20.40;67.90;;;;;;5096093;28;20063;-71
2021/08/02 07:03:48;;;;;;;1.65;0.30;;;20.40;67.90;;;;;;5096476;28;20051;-72
2021/08/02 07:06:14;;;;;;;1.90;0.43;;;20.40;68.00;;;;;;5096729;28;20388;-72
2021/08/02 07:08:39;;;;;;;1.92;0.52;;;20.40;68.00;;;;;;5096168;28;20036;-72
2021/08/02 07:11:06;;;;;;;2.47;0.40;;;20.40;68.00;;;;;;5096300;28;20144;-72
2021/08/02 07:13:33;;;;;;;0.75;0.30;;;20.40;68.10;;;;;;5095944;28;20040;-71
2021/08/02 07:16:00;;;;;;;0.70;0.35;;;20.40;68.10;;;;;;5096143;28;20097;-71
2021/08/02 07:18:27;;;;;;;1.17;0.40;;;20.40;68.10;;;;;;5095866;28;20040;-71
2021/08/02 07:20:53;;;;;;;2.15;0.30;;;20.40;68.20;;;;;;5095919;28;20359;-71
2021/08/02 07:23:19;;;;;;;1.45;0.30;;;20.40;68.10;;;;;;5096568;28;20047;-72
2021/08/02 07:25:45;;;;;;;1.52;0.30;;;20.40;68.20;;;;;;5096208;28;20471;-71
2021/08/02 07:28:11;;;;;;;1.10;0.30;;;20.40;68.20;;;;;;5096452;28;20127;-72
2021/08/02 07:30:37;;;;;;;0.77;0.40;;;20.40;68.30;;;;;;5096120;28;20111;-71
2021/08/02 07:33:03;;;;;;;1.08;0.40;;;20.40;68.80;;;;;;5077950;28;20044;-72
2021/08/02 07:35:30;;;;;;;1.60;0.28;;;20.40;68.30;;;;;;5095575;28;20058;-72
2021/08/02 07:37:56;;;;;;;1.55;0.43;;;20.40;68.30;;;;;;5096150;28;20059;-71
2021/08/02 07:40:22;;;;;;;1.42;0.40;;;20.40;68.30;;;;;;5096224;28;20036;-71
2021/08/02 07:42:47;;;;;;;1.50;0.32;;;20.40;68.30;;;;;;5095663;28;20039;-71
2021/08/02 07:45:13;;;;;;;1.30;0.45;;;20.50;68.30;;;;;;5095491;28;20340;-71
2021/08/02 07:47:40;;;;;;;1.55;0.50;;;20.50;68.30;;;;;;5095247;28;20055;-71
2021/08/02 07:50:07;;;;;;;1.95;0.20;;;20.50;68.30;;;;;;5095495;28;20044;-72
2021/08/02 07:52:33;;;;;;;1.95;0.30;;;20.50;68.30;;;;;;5096054;28;20054;-72
2021/08/02 07:55:00;;;;;;;2.17;0.40;;;20.50;68.20;;;;;;5095581;28;20036;-72
2021/08/02 07:57:26;;;;;;;0.80;0.30;;;20.50;68.30;;;;;;5095519;28;20044;-72
2021/08/02 07:59:52;;;;;;;0.90;0.30;;;20.50;68.30;;;;;;5095407;28;20048;-71
2021/08/02 08:02:18;;;;;;;0.85;0.20;;;20.50;68.30;;;;;;5095877;28;20051;-72
2021/08/02 08:04:43;;;;;;;1.10;0.40;;;20.50;68.30;;;;;;5095861;28;20490;-71
2021/08/02 08:07:09;;;;;;;1.17;0.20;;;20.50;68.20;;;;;;5095664;28;20036;-71
2021/08/02 08:09:35;;;;;;;1.42;0.40;;;20.50;68.20;;;;;;5095173;28;20040;-71
2021/08/02 08:12:01;;;;;;;1.63;0.30;;;20.50;68.20;;;;;;5095142;28;20343;-71
2021/08/02 08:14:27;;;;;;;1.60;0.38;;;20.50;68.30;;;;;;5095096;28;20044;-72
2021/08/02 08:16:53;;;;;;;1.75;0.38;;;20.50;68.30;;;;;;5095157;28;20093;-72
2021/08/02 08:19:18;;;;;;;1.17;0.30;;;20.50;68.30;;;;;;5095118;28;20048;-72
2021/08/02 08:21:44;;;;;;;0.90;0.20;;;20.50;68.20;;;;;;5095462;28;20040;-71
2021/08/02 08:24:10;;;;;;;2.97;0.73;;;20.50;68.20;;;;;;5095515;28;20032;-71
2021/08/02 08:26:36;;;;;;;1.65;0.30;;;20.50;68.20;;;;;;5095370;28;20039;-71
2021/08/02 08:29:03;;;;;;;1.33;0.30;;;20.50;68.10;;;;;;5095047;28;20040;-71
2021/08/02 08:31:29;;;;;;;1.25;0.22;;;20.50;68.10;;;;;;5095116;28;20048;-72
2021/08/02 08:33:56;;;;;;;1.83;0.30;;;20.50;68.10;;;;;;5094877;28;20134;-71
2021/08/02 08:36:23;;;;;;;0.60;0.30;;;20.50;68.10;;;;;;5095352;28;20398;-71
2021/08/02 08:38:49;;;;;;;1.60;0.63;;;20.50;68.10;;;;;;5095016;28;20044;-72
2021/08/02 08:41:19;;;;;;;1.75;0.50;;;20.50;68.10;;;;;;5095376;28;20131;-72
2021/08/02 08:43:45;;;;;;;0.52;0.20;;;20.50;68.00;;;;;;5095097;28;20051;-71
2021/08/02 08:46:11;;;;;;;1.58;0.45;;;20.50;68.10;;;;;;5094793;28;20105;-72
2021/08/02 08:48:37;;;;;;;1.15;0.25;;;20.50;68.10;;;;;;5095517;28;20378;-71
2021/08/02 08:51:03;;;;;;;1.77;0.55;;;20.50;68.10;;;;;;5095294;28;20358;-71
2021/08/02 08:53:29;;;;;;;2.22;0.30;;;20.50;68.10;;;;;;5094771;28;20570;-71
2021/08/02 08:55:55;;;;;;;2.00;0.30;;;20.50;68.10;;;;;;5094761;28;20114;-72
2021/08/02 08:58:21;;;;;;;1.98;0.30;;;20.50;68.10;;;;;;5095236;28;20123;-72
2021/08/02 09:00:47;;;;;;;1.48;0.50;;;20.50;68.10;;;;;;5098465;28;20076;-72
2021/08/02 09:03:15;;;;;;;1.13;0.30;;;20.60;68.20;;;;;;5099153;28;20039;-72
2021/08/02 09:05:41;;;;;;;1.40;0.20;;;20.50;68.10;;;;;;5098719;28;20051;-72
2021/08/02 09:08:13;;;;;;;2.38;0.32;;;20.50;68.10;;;;;;5098912;28;20040;-72
2021/08/02 09:10:39;;;;;;;2.42;0.32;;;20.60;68.10;;;;;;5098480;28;20044;-71
2021/08/02 09:13:08;;;;;;;0.85;0.40;;;20.60;68.10;;;;;;5098895;28;20427;-72
2021/08/02 09:15:37;;;;;;;1.45;0.40;;;20.60;68.10;;;;;;5098326;28;20047;-72
2021/08/02 09:18:09;;;;;;;0.88;0.35;;;20.60;68.10;;;;;;5098224;28;20051;-72
2021/08/02 09:20:36;;;;;;;2.03;0.30;;;20.60;68.10;;;;;;5098417;28;20393;-71
2021/08/02 09:23:13;;;;;;;2.38;0.30;;;20.60;68.00;;;;;;5098193;28;20115;-72
2021/08/02 09:25:51;;;;;;;0.88;0.28;;;20.60;67.90;;;;;;5098189;28;20051;-72
2021/08/02 09:28:23;;;;;;;0.68;0.30;;;20.60;67.80;;;;;;5098257;28;20048;-72
2021/08/02 09:30:52;;;;;;;1.52;0.40;;;20.60;67.90;;;;;;5098362;28;20044;-71
2021/08/02 09:33:18;;;;;;;1.58;0.32;;;20.60;67.90;;;;;;5098466;28;20047;-71
2021/08/02 09:35:48;;;;;;;2.13;0.30;;;20.60;68.00;;;;;;5098042;28;20044;-72
2021/08/02 09:38:15;;;;;;;1.52;0.60;;;20.60;67.90;;;;;;5097998;28;20093;-73
2021/08/02 09:40:47;;;;;;;1.38;0.22;;;20.70;68.00;;;;;;5097984;28;20050;-72
2021/08/02 09:43:20;;;;;;;2.20;0.32;;;20.70;67.90;;;;;;5098339;28;20443;-71
2021/08/02 09:45:49;;;;;;;;;;;20.70;67.90;;;;;;5098924;28;20051;-72
2021/08/02 09:48:17;;;;;;;1.00;0.25;;;20.60;67.70;;;;;;5097818;28;20232;-71
2021/08/02 09:50:44;;;;;;;1.88;0.17;;;20.70;68.00;;;;;;5098331;28;20332;-72
2021/08/02 09:53:17;;;;;;;1.48;0.30;;;20.70;68.10;;;;;;5097664;28;20109;-72
2021/08/02 09:55:45;;;;;;;1.15;0.30;;;20.70;67.90;;;;;;5098011;28;20040;-72
2021/08/02 09:58:14;;;;;;;0.95;0.35;;;20.70;68.00;;;;;;5097496;28;20050;-72
2021/08/02 10:00:42;;;;;;;1.55;0.40;;;20.70;67.90;;;;;;5097513;28;20443;-72
2021/08/02 10:03:08;;;;;;;1.27;0.30;;;20.70;67.90;;;;;;5097744;28;20047;-72
2021/08/02 10:05:39;;;;;;;1.08;0.20;;;20.70;67.90;;;;;;5097989;28;20039;-72
2021/08/02 10:08:06;;;;;;;1.00;0.32;;;20.70;67.90;;;;;;5097284;28;20062;-72
2021/08/02 10:10:32;;;;;;;0.88;0.20;;;20.70;67.80;;;;;;5096847;28;20068;-72
2021/08/02 10:12:58;;;;;;;0.77;0.30;;;20.80;67.90;;;;;;5097431;28;20044;-72
2021/08/02 10:15:27;;;;;;;1.45;0.35;;;20.70;67.80;;;;;;5097257;28;20067;-72
2021/08/02 10:17:57;;;;;;;1.48;0.50;;;20.70;67.80;;;;;;5097797;28;20039;-73
2021/08/02 10:20:33;;;;;;;0.30;0.20;;;20.80;67.80;;;;;;5097758;28;20043;-72
2021/08/02 10:23:02;;;;;;;0.60;0.20;;;20.80;67.70;;;;;;5097556;28;20461;-71
2021/08/02 10:25:39;;;;;;;1.30;0.28;;;20.80;67.60;;;;;;5096959;28;20039;-72
2021/08/02 10:28:13;;;;;;;2.00;0.50;;;20.80;67.60;;;;;;5097649;28;20028;-72
2021/08/02 10:30:40;;;;;;;1.45;0.40;;;20.80;67.60;;;;;;5096949;28;20050;-72
2021/08/02 10:33:07;;;;;;;1.83;0.35;;;20.80;67.60;;;;;;5097621;28;20461;-72
2021/08/02 10:35:44;;;;;;;1.50;0.20;;;20.80;67.60;;;;;;5096914;28;20128;-72
2021/08/02 10:38:14;;;;;;;1.00;0.20;;;20.80;67.40;;;;;;5097429;28;20475;-71
2021/08/02 10:40:56;;;;;;;1.45;0.40;;;20.80;67.50;;;;;;5096981;28;20116;-72
2021/08/02 10:43:33;;;;;;;1.60;0.30;;;20.80;67.50;;;;;;5096528;28;20425;-72
2021/08/02 10:46:01;;;;;;;0.90;0.30;;;20.80;67.40;;;;;;5096667;28;20443;-72
2021/08/02 10:48:29;;;;;;;0.80;0.25;;;20.80;67.50;;;;;;5096743;28;20052;-72
2021/08/02 10:50:56;;;;;;;0.93;0.20;;;20.80;67.50;;;;;;5096679;28;20476;-72
2021/08/02 10:53:23;;;;;;;1.02;0.57;;;20.80;67.50;;;;;;5096630;28;20075;-73
2021/08/02 10:55:52;;;;;;;1.08;0.30;;;20.90;67.50;;;;;;5096918;28;20040;-72
2021/08/02 10:58:34;;;;;;;1.05;0.30;;;20.90;67.40;;;;;;5096889;28;20339;-71
2021/08/02 11:01:11;;;;;;;0.68;0.30;;;20.90;67.30;;;;;;5096472;28;20040;-71
2021/08/02 11:03:42;;;;;;;0.70;0.20;;;20.90;67.30;;;;;;5096352;28;20040;-72
2021/08/02 11:06:09;;;;;;;0.80;0.20;;;20.90;67.20;;;;;;5096230;28;20044;-72
2021/08/02 11:08:48;;;;;;;1.75;0.40;;;20.90;67.30;;;;;;5096701;28;20105;-72
2021/08/02 11:11:29;;;;;;;1.38;0.28;;;20.90;67.10;;;;;;5096553;28;20036;-72
2021/08/02 11:14:11;;;;;;;0.60;0.20;;;20.90;67.00;;;;;;5096068;28;20044;-72
2021/08/02 11:16:45;;;;;;;1.17;0.20;;;20.90;67.10;;;;;;5096109;28;20040;-72
2021/08/02 11:19:29;;;;;;;1.40;0.20;;;20.90;67.30;;;;;;5096794;28;20123;-72
2021/08/02 11:21:58;;;;;;;0.68;0.25;;;20.90;67.20;;;;;;5096455;28;20044;-72
2021/08/02 11:24:28;;;;;;;0.50;0.10;;;20.90;67.30;;;;;;5095850;28;20109;-72
2021/08/02 11:26:59;;;;;;;1.33;0.35;;;20.90;67.30;;;;;;5095702;28;20094;-72
2021/08/02 11:29:27;;;;;;;0.57;0.13;;;20.90;67.30;;;;;;5095932;28;20109;-72
2021/08/02 11:32:10;;;;;;;0.52;0.20;;;20.90;67.20;;;;;;5095898;28;20044;-72
2021/08/02 11:34:38;;;;;;;1.13;0.30;;;20.90;67.20;;;;;;5095827;28;20113;-72
2021/08/02 11:37:10;;;;;;;0.40;0.20;;;20.90;67.30;;;;;;5095682;28;20043;-72
2021/08/02 11:39:38;;;;;;;0.98;0.22;;;20.90;67.30;;;;;;5095727;28;20050;-72
2021/08/02 11:42:13;;;;;;;1.77;0.30;;;20.90;67.30;;;;;;5095737;28;20119;-72
2021/08/02 11:44:43;;;;;;;1.35;0.30;;;20.90;67.30;;;;;;5095946;28;20039;-72
2021/08/02 11:47:20;;;;;;;1.35;0.20;;;21.00;67.40;;;;;;5095656;28;20558;-72
2021/08/02 11:49:47;;;;;;;1.70;0.30;;;21.00;67.20;;;;;;5095179;28;20036;-72
2021/08/02 11:52:17;;;;;;;0.68;0.20;;;21.00;67.30;;;;;;5095543;28;20075;-72
2021/08/02 11:54:46;;;;;;;0.68;0.20;;;21.00;67.30;;;;;;5096005;28;20100;-72
2021/08/02 11:57:21;;;;;;;1.58;0.30;;;21.00;67.90;;;;;;5095640;28;20040;-72
2021/08/02 12:00:11;;;;;;;0.60;0.17;;;21.00;67.30;;;;;;5095066;28;20052;-72
2021/08/02 12:02:38;;;;;;;0.98;0.22;;;21.00;67.10;;;;;;5095301;28;20088;-72
2021/08/02 12:05:07;;;;;;;0.65;0.13;;;21.00;67.30;;;;;;5095573;28;20336;-72
2021/08/02 12:07:33;;;;;;;0.98;0.20;;;21.00;67.10;;;;;;5095332;28;20043;-72
2021/08/02 12:10:12;;;;;;;1.40;0.20;;;21.00;67.10;;;;;;5095826;28;20040;-72
2021/08/02 12:12:39;;;;;;;1.10;0.10;;;21.00;67.00;;;;;;5095303;28;20044;-73
2021/08/02 12:15:09;;;;;;;0.80;0.20;;;21.00;67.10;;;;;;5095613;28;20388;-72
2021/08/02 12:17:49;;;;;;;0.65;0.22;;;21.00;67.10;;;;;;5095570;28;20119;-72
2021/08/02 12:20:15;;;;;;;0.60;0.20;;;21.00;67.00;;;;;;5095225;28;20048;-72
2021/08/02 12:22:41;;;;;;;0.68;0.17;;;21.00;67.10;;;;;;5095330;28;20119;-72
2021/08/02 12:25:07;;;;;;;1.02;0.15;;;21.00;67.00;;;;;;5095116;28;20115;-72
2021/08/02 12:27:34;;;;;;;0.80;0.20;;;21.00;67.00;;;;;;5095552;28;20904;-72
2021/08/02 12:30:08;;;;;;;0.88;0.20;;;21.00;67.10;;;;;;5095746;28;20040;-72
2021/08/02 12:32:36;;;;;;;1.08;0.25;;;21.00;67.10;;;;;;5095110;28;20036;-72
2021/08/02 12:35:04;;;;;;;0.10;0.00;;;21.00;67.10;;;;;;5098568;28;20481;-72
2021/08/02 12:37:30;;;;;;;0.65;0.20;;;21.00;67.20;;;;;;5099161;28;20044;-72
2021/08/02 12:39:56;;;;;;;1.05;0.20;;;21.00;67.30;;;;;;5099132;28;20049;-72
2021/08/02 12:42:26;;;;;;;0.63;0.17;;;21.00;67.20;;;;;;5099585;28;20115;-72
2021/08/02 12:44:53;;;;;;;1.48;0.20;;;21.00;67.20;;;;;;5099448;28;20036;-72
2021/08/02 12:47:23;;;;;;;1.08;0.20;;;21.00;67.20;;;;;;5099041;28;20051;-72
2021/08/02 12:49:49;;;;;;;0.85;0.10;;;21.00;67.20;;;;;;5098740;28;20542;-72
2021/08/02 12:52:22;;;;;;;0.82;0.30;;;21.00;67.20;;;;;;5099428;28;20036;-72
2021/08/02 12:54:48;;;;;;;0.88;0.20;;;21.00;67.20;;;;;;5098640;28;20048;-72
2021/08/02 12:57:13;;;;;;;0.60;0.20;;;21.00;67.20;;;;;;5099318;28;20062;-72